sensor_id;sensor_type;location;lat;lon;timestamp;pressure;altitude;pressure_sealevel;temperature;humidity
77106;BME280;66057;54.718;18.426;2023-10-13T00:01:56;47435.47;;;-143.26;87.86
77106;BME280;66057;54.718;18.426;2023-10-13T00:04:25;47439.34;;;-143.26;87.68
77106;BME280;66057;54.718;18.426;2023-10-13T00:06:54;47431.56;;;-143.26;87.95
77106;BME280;66057;54.718;18.426;2023-10-13T00:09:22;47447.16;;;-143.26;87.84
77106;BME280;66057;54.718;18.426;2023-10-13T00:12:00;47468.63;;;-143.26;87.94
77106;BME280;66057;54.718;18.426;2023-10-13T00:14:26;47415.94;;;-143.26;88.12
77106;BME280;66057;54.718;18.426;2023-10-13T00:17:03;47478.38;;;-143.26;87.82
77106;BME280;66057;54.718;18.426;2023-10-13T00:19:31;47451.06;;;-143.26;88.03
77106;BME280;66057;54.718;18.426;2023-10-13T00:22:08;47445.22;;;-143.26;87.80
77106;BME280;66057;54.718;18.426;2023-10-13T00:24:39;47464.72;;;-143.26;87.88
77106;BME280;66057;54.718;18.426;2023-10-13T00:27:17;47429.59;;;-143.26;87.70
77106;BME280;66057;54.718;18.426;2023-10-13T00:30:03;47445.22;;;-143.26;87.82
77106;BME280;66057;54.718;18.426;2023-10-13T00:32:51;47421.78;;;-143.26;87.93
77106;BME280;66057;54.718;18.426;2023-10-13T00:35:23;47460.81;;;-143.26;87.62
77106;BME280;66057;54.718;18.426;2023-10-13T00:38:05;47449.13;;;-143.26;87.96
77106;BME280;66057;54.718;18.426;2023-10-13T00:40:45;47447.16;;;-143.26;87.82
77106;BME280;66057;54.718;18.426;2023-10-13T00:43:18;47454.97;;;-143.26;88.08
77106;BME280;66057;54.718;18.426;2023-10-13T00:45:55;47435.47;;;-143.26;87.86
77106;BME280;66057;54.718;18.426;2023-10-13T00:48:23;47443.25;;;-143.26;88.03
77106;BME280;66057;54.718;18.426;2023-10-13T00:51:00;47458.88;;;-143.26;87.79
77106;BME280;66057;54.718;18.426;2023-10-13T00:53:31;47445.22;;;-143.26;87.83
77106;BME280;66057;54.718;18.426;2023-10-13T00:56:01;47460.81;;;-143.26;88.07
77106;BME280;66057;54.718;18.426;2023-10-13T00:58:35;47466.66;;;-143.26;87.96
77106;BME280;66057;54.718;18.426;2023-10-13T01:01:01;47486.19;;;-143.26;87.78
77106;BME280;66057;54.718;18.426;2023-10-13T01:03:52;47458.88;;;-143.26;88.16
77106;BME280;66057;54.718;18.426;2023-10-13T01:06:23;47497.88;;;-143.26;88.02
77106;BME280;66057;54.718;18.426;2023-10-13T01:09:03;47476.44;;;-143.26;88.02
77106;BME280;66057;54.718;18.426;2023-10-13T01:11:40;47470.56;;;-143.26;87.90
77106;BME280;66057;54.718;18.426;2023-10-13T01:14:09;47431.56;;;-143.26;87.97
77106;BME280;66057;54.718;18.426;2023-10-13T01:16:39;47441.31;;;-143.26;88.14
77106;BME280;66057;54.718;18.426;2023-10-13T01:19:15;47441.31;;;-143.26;88.12
77106;BME280;66057;54.718;18.426;2023-10-13T01:21:48;47464.72;;;-143.26;88.06
77106;BME280;66057;54.718;18.426;2023-10-13T01:24:14;47439.34;;;-143.26;88.12
77106;BME280;66057;54.718;18.426;2023-10-13T01:26:46;47431.56;;;-143.26;87.99
77106;BME280;66057;54.718;18.426;2023-10-13T01:29:17;47454.97;;;-143.26;88.08
77106;BME280;66057;54.718;18.426;2023-10-13T01:31:47;47441.31;;;-143.26;88.17
77106;BME280;66057;54.718;18.426;2023-10-13T01:34:18;47462.78;;;-143.26;88.21
77106;BME280;66057;54.718;18.426;2023-10-13T01:36:53;47447.16;;;-143.26;88.51
77106;BME280;66057;54.718;18.426;2023-10-13T01:39:21;47454.97;;;-143.26;88.03
77106;BME280;66057;54.718;18.426;2023-10-13T01:41:52;47443.25;;;-143.26;88.19
77106;BME280;66057;54.718;18.426;2023-10-13T01:44:27;47470.56;;;-143.26;88.14
77106;BME280;66057;54.718;18.426;2023-10-13T01:46:59;47433.50;;;-143.26;88.36
77106;BME280;66057;54.718;18.426;2023-10-13T01:49:25;47439.34;;;-143.26;88.51
77106;BME280;66057;54.718;18.426;2023-10-13T01:51:51;47486.19;;;-143.26;88.31
77106;BME280;66057;54.718;18.426;2023-10-13T01:54:18;47439.34;;;-143.26;88.49
77106;BME280;66057;54.718;18.426;2023-10-13T01:56:46;47456.91;;;-143.26;88.54
77106;BME280;66057;54.718;18.426;2023-10-13T01:59:14;47470.56;;;-143.26;88.67
77106;BME280;66057;54.718;18.426;2023-10-13T02:01:41;47443.25;;;-143.26;88.58
77106;BME280;66057;54.718;18.426;2023-10-13T02:04:10;47451.06;;;-143.26;88.51
77106;BME280;66057;54.718;18.426;2023-10-13T02:06:37;47488.13;;;-143.26;88.60
77106;BME280;66057;54.718;18.426;2023-10-13T02:09:05;47464.72;;;-143.26;88.57
77106;BME280;66057;54.718;18.426;2023-10-13T02:11:52;47439.34;;;-143.26;88.59
77106;BME280;66057;54.718;18.426;2023-10-13T02:14:21;47458.88;;;-143.26;88.38
77106;BME280;66057;54.718;18.426;2023-10-13T02:16:51;47460.81;;;-143.26;88.44
77106;BME280;66057;54.718;18.426;2023-10-13T02:19:22;47443.25;;;-143.26;88.73
77106;BME280;66057;54.718;18.426;2023-10-13T02:21:52;47431.56;;;-143.26;88.64
77106;BME280;66057;54.718;18.426;2023-10-13T02:24:24;47412.03;;;-143.26;88.60
77106;BME280;66057;54.718;18.426;2023-10-13T02:26:56;47474.47;;;-143.26;88.42
77106;BME280;66057;54.718;18.426;2023-10-13T02:29:28;47435.47;;;-143.26;88.56
77106;BME280;66057;54.718;18.426;2023-10-13T02:31:54;47464.72;;;-143.26;88.63
77106;BME280;66057;54.718;18.426;2023-10-13T02:34:26;47462.78;;;-143.26;88.58
77106;BME280;66057;54.718;18.426;2023-10-13T02:36:52;47453.00;;;-143.26;88.51
77106;BME280;66057;54.718;18.426;2023-10-13T02:39:19;47433.50;;;-143.26;88.24
77106;BME280;66057;54.718;18.426;2023-10-13T02:41:53;47493.97;;;-143.26;88.20
77106;BME280;66057;54.718;18.426;2023-10-13T02:44:21;47493.97;;;-143.26;87.89
77106;BME280;66057;54.718;18.426;2023-10-13T02:46:57;47423.75;;;-143.26;88.24
77106;BME280;66057;54.718;18.426;2023-10-13T02:49:25;47427.66;;;-143.26;88.07
77106;BME280;66057;54.718;18.426;2023-10-13T02:52:05;47451.06;;;-143.26;87.93
77106;BME280;66057;54.718;18.426;2023-10-13T02:54:34;47462.78;;;-143.26;88.08
77106;BME280;66057;54.718;18.426;2023-10-13T02:57:20;47454.97;;;-143.26;88.05
77106;BME280;66057;54.718;18.426;2023-10-13T02:59:48;47443.25;;;-143.26;88.28
77106;BME280;66057;54.718;18.426;2023-10-13T03:02:21;47476.44;;;-143.26;88.31
77106;BME280;66057;54.718;18.426;2023-10-13T03:04:55;47472.53;;;-143.26;88.08
77106;BME280;66057;54.718;18.426;2023-10-13T03:07:37;47447.16;;;-143.26;88.43
77106;BME280;66057;54.718;18.426;2023-10-13T03:10:07;47462.78;;;-143.26;88.36
77106;BME280;66057;54.718;18.426;2023-10-13T03:12:36;47451.06;;;-143.26;88.24
77106;BME280;66057;54.718;18.426;2023-10-13T03:15:03;47427.66;;;-143.26;88.03
77106;BME280;66057;54.718;18.426;2023-10-13T03:17:41;47458.88;;;-143.26;87.97
77106;BME280;66057;54.718;18.426;2023-10-13T03:20:10;47458.88;;;-143.26;87.93
77106;BME280;66057;54.718;18.426;2023-10-13T03:22:41;47439.34;;;-143.26;87.92
77106;BME280;66057;54.718;18.426;2023-10-13T03:25:14;47445.22;;;-143.26;88.21
77106;BME280;66057;54.718;18.426;2023-10-13T03:27:52;47437.41;;;-143.26;87.92
77106;BME280;66057;54.718;18.426;2023-10-13T03:30:21;47419.84;;;-143.26;87.97
77106;BME280;66057;54.718;18.426;2023-10-13T03:32:54;47474.47;;;-143.26;87.80
77106;BME280;66057;54.718;18.426;2023-10-13T03:35:22;47443.25;;;-143.26;88.18
77106;BME280;66057;54.718;18.426;2023-10-13T03:37:51;47468.63;;;-143.26;87.81
77106;BME280;66057;54.718;18.426;2023-10-13T03:40:20;47462.78;;;-143.26;87.79
77106;BME280;66057;54.718;18.426;2023-10-13T03:42:51;47449.13;;;-143.26;87.82
77106;BME280;66057;54.718;18.426;2023-10-13T03:45:40;47435.47;;;-143.26;88.26
77106;BME280;66057;54.718;18.426;2023-10-13T03:48:18;47460.81;;;-143.26;88.10
77106;BME280;66057;54.718;18.426;2023-10-13T03:50:54;47451.06;;;-143.26;88.03
77106;BME280;66057;54.718;18.426;2023-10-13T03:53:33;47484.22;;;-143.26;88.03
77106;BME280;66057;54.718;18.426;2023-10-13T03:56:05;47486.19;;;-143.26;88.14
77106;BME280;66057;54.718;18.426;2023-10-13T03:58:38;47462.78;;;-143.26;87.61
77106;BME280;66057;54.718;18.426;2023-10-13T04:01:05;47423.75;;;-143.26;87.71
77106;BME280;66057;54.718;18.426;2023-10-13T04:03:31;47478.38;;;-143.26;87.65
77106;BME280;66057;54.718;18.426;2023-10-13T04:06:06;47437.41;;;-143.26;87.65
77106;BME280;66057;54.718;18.426;2023-10-13T04:08:33;47460.81;;;-143.26;88.30
77106;BME280;66057;54.718;18.426;2023-10-13T04:11:08;47511.53;;;-143.26;87.95
77106;BME280;66057;54.718;18.426;2023-10-13T04:13:52;47447.16;;;-143.26;88.10
77106;BME280;66057;54.718;18.426;2023-10-13T04:16:37;47468.63;;;-143.26;88.05
77106;BME280;66057;54.718;18.426;2023-10-13T04:19:04;47464.72;;;-143.26;87.80
77106;BME280;66057;54.718;18.426;2023-10-13T04:21:34;47482.28;;;-143.26;87.63
77106;BME280;66057;54.718;18.426;2023-10-13T04:24:07;47447.16;;;-143.26;87.66
77106;BME280;66057;54.718;18.426;2023-10-13T04:26:52;47476.44;;;-143.26;87.57
77106;BME280;66057;54.718;18.426;2023-10-13T04:29:37;47482.28;;;-143.26;87.45
77106;BME280;66057;54.718;18.426;2023-10-13T04:32:22;47482.28;;;-143.26;87.87
77106;BME280;66057;54.718;18.426;2023-10-13T04:35:00;47501.78;;;-143.26;87.60
77106;BME280;66057;54.718;18.426;2023-10-13T04:37:36;47456.91;;;-143.26;87.70
77106;BME280;66057;54.718;18.426;2023-10-13T04:40:20;47488.13;;;-143.26;88.14
77106;BME280;66057;54.718;18.426;2023-10-13T04:43:01;47451.06;;;-143.26;87.88
77106;BME280;66057;54.718;18.426;2023-10-13T04:45:45;47439.34;;;-143.26;87.64
77106;BME280;66057;54.718;18.426;2023-10-13T04:48:20;47476.44;;;-143.26;87.64
77106;BME280;66057;54.718;18.426;2023-10-13T04:50:49;47497.88;;;-143.26;87.71
77106;BME280;66057;54.718;18.426;2023-10-13T04:53:24;47478.38;;;-143.26;87.69
77106;BME280;66057;54.718;18.426;2023-10-13T04:56:00;47482.28;;;-143.26;87.69
77106;BME280;66057;54.718;18.426;2023-10-13T04:58:30;47462.78;;;-143.26;87.71
77106;BME280;66057;54.718;18.426;2023-10-13T05:01:02;47470.56;;;-143.26;87.43
77106;BME280;66057;54.718;18.426;2023-10-13T05:03:47;47480.31;;;-143.26;87.61
77106;BME280;66057;54.718;18.426;2023-10-13T05:06:32;47454.97;;;-143.26;87.98
77106;BME280;66057;54.718;18.426;2023-10-13T05:09:13;47499.84;;;-143.26;87.66
77106;BME280;66057;54.718;18.426;2023-10-13T05:11:58;47451.06;;;-143.26;87.96
77106;BME280;66057;54.718;18.426;2023-10-13T05:14:43;47505.69;;;-143.26;88.31
77106;BME280;66057;54.718;18.426;2023-10-13T05:17:28;47499.84;;;-143.26;88.86
77106;BME280;66057;54.718;18.426;2023-10-13T05:20:12;47443.25;;;-143.26;88.51
77106;BME280;66057;54.718;18.426;2023-10-13T05:22:56;47472.53;;;-143.26;88.53
77106;BME280;66057;54.718;18.426;2023-10-13T05:25:44;47466.66;;;-143.26;88.55
77106;BME280;66057;54.718;18.426;2023-10-13T05:28:28;47486.19;;;-143.26;88.28
77106;BME280;66057;54.718;18.426;2023-10-13T05:31:13;47445.22;;;-143.26;88.24
77106;BME280;66057;54.718;18.426;2023-10-13T05:33:57;47472.53;;;-143.26;88.51
77106;BME280;66057;54.718;18.426;2023-10-13T05:36:42;47470.56;;;-143.26;88.14
77106;BME280;66057;54.718;18.426;2023-10-13T05:39:26;47478.38;;;-143.26;87.91
77106;BME280;66057;54.718;18.426;2023-10-13T05:42:11;47474.47;;;-143.26;87.91
77106;BME280;66057;54.718;18.426;2023-10-13T05:44:55;47451.06;;;-143.26;87.91
77106;BME280;66057;54.718;18.426;2023-10-13T05:47:33;47464.72;;;-143.26;88.41
77106;BME280;66057;54.718;18.426;2023-10-13T05:50:02;47466.66;;;-143.26;88.40
77106;BME280;66057;54.718;18.426;2023-10-13T05:52:42;47449.13;;;-143.26;88.54
77106;BME280;66057;54.718;18.426;2023-10-13T05:55:30;47484.22;;;-143.26;88.82
77106;BME280;66057;54.718;18.426;2023-10-13T05:58:15;47507.63;;;-143.26;88.69
77106;BME280;66057;54.718;18.426;2023-10-13T06:00:59;47445.22;;;-143.26;88.55
77106;BME280;66057;54.718;18.426;2023-10-13T06:03:44;47464.72;;;-143.26;88.56
77106;BME280;66057;54.718;18.426;2023-10-13T06:06:28;47427.66;;;-143.26;89.20
77106;BME280;66057;54.718;18.426;2023-10-13T06:09:12;47486.19;;;-143.26;89.24
77106;BME280;66057;54.718;18.426;2023-10-13T06:11:57;47486.19;;;-143.26;89.38
77106;BME280;66057;54.718;18.426;2023-10-13T06:14:48;47427.66;;;-143.26;89.69
77106;BME280;66057;54.718;18.426;2023-10-13T06:17:32;47423.75;;;-143.26;89.73
77106;BME280;66057;54.718;18.426;2023-10-13T06:20:17;47464.72;;;-143.26;89.21
77106;BME280;66057;54.718;18.426;2023-10-13T06:23:01;47437.41;;;-143.26;89.52
77106;BME280;66057;54.718;18.426;2023-10-13T06:25:52;47433.50;;;-143.26;89.61
77106;BME280;66057;54.718;18.426;2023-10-13T06:28:38;47458.88;;;-143.26;89.60
77106;BME280;66057;54.718;18.426;2023-10-13T06:31:08;47454.97;;;-143.26;89.48
77106;BME280;66057;54.718;18.426;2023-10-13T06:33:37;47431.56;;;-143.26;89.65
77106;BME280;66057;54.718;18.426;2023-10-13T06:36:08;47476.44;;;-143.26;90.03
77106;BME280;66057;54.718;18.426;2023-10-13T06:38:40;47462.78;;;-143.26;89.65
77106;BME280;66057;54.718;18.426;2023-10-13T06:41:08;47468.63;;;-143.26;89.81
77106;BME280;66057;54.718;18.426;2023-10-13T06:43:37;47460.81;;;-143.26;90.08
77106;BME280;66057;54.718;18.426;2023-10-13T06:46:12;47454.97;;;-143.26;90.08
77106;BME280;66057;54.718;18.426;2023-10-13T06:48:49;47439.34;;;-143.26;90.00
77106;BME280;66057;54.718;18.426;2023-10-13T06:51:22;47462.78;;;-143.26;90.20
77106;BME280;66057;54.718;18.426;2023-10-13T06:53:51;47454.97;;;-143.26;90.29
77106;BME280;66057;54.718;18.426;2023-10-13T06:56:22;47443.25;;;-143.26;89.97
77106;BME280;66057;54.718;18.426;2023-10-13T06:58:53;47453.00;;;-143.26;90.13
77106;BME280;66057;54.718;18.426;2023-10-13T07:01:28;47451.06;;;-143.26;90.26
77106;BME280;66057;54.718;18.426;2023-10-13T07:03:54;47484.22;;;-143.26;90.20
77106;BME280;66057;54.718;18.426;2023-10-13T07:06:27;47454.97;;;-143.26;90.20
77106;BME280;66057;54.718;18.426;2023-10-13T07:08:53;47435.47;;;-143.26;90.06
77106;BME280;66057;54.718;18.426;2023-10-13T07:11:24;47460.81;;;-143.26;89.96
77106;BME280;66057;54.718;18.426;2023-10-13T07:14:00;47460.81;;;-143.26;90.16
77106;BME280;66057;54.718;18.426;2023-10-13T07:16:59;47464.72;;;-143.26;89.71
77106;BME280;66057;54.718;18.426;2023-10-13T07:19:28;47454.97;;;-143.26;89.53
77106;BME280;66057;54.718;18.426;2023-10-13T07:21:56;47462.78;;;-143.26;89.65
77106;BME280;66057;54.718;18.426;2023-10-13T07:24:28;47445.22;;;-143.26;88.93
77106;BME280;66057;54.718;18.426;2023-10-13T07:26:58;47433.50;;;-143.26;89.46
77106;BME280;66057;54.718;18.426;2023-10-13T07:29:31;47451.06;;;-143.26;88.44
77106;BME280;66057;54.718;18.426;2023-10-13T07:32:02;47445.22;;;-143.26;88.45
77106;BME280;66057;54.718;18.426;2023-10-13T07:34:38;47470.56;;;-143.26;87.70
77106;BME280;66057;54.718;18.426;2023-10-13T07:37:05;47433.50;;;-143.26;87.77
77106;BME280;66057;54.718;18.426;2023-10-13T07:39:38;47456.91;;;-143.26;87.57
77106;BME280;66057;54.718;18.426;2023-10-13T07:42:06;47425.69;;;-143.26;87.09
77106;BME280;66057;54.718;18.426;2023-10-13T07:44:45;47462.78;;;-143.26;87.35
77106;BME280;66057;54.718;18.426;2023-10-13T07:47:11;47427.66;;;-143.26;87.08
77106;BME280;66057;54.718;18.426;2023-10-13T07:49:40;47406.19;;;-143.26;87.71
77106;BME280;66057;54.718;18.426;2023-10-13T07:52:11;47460.81;;;-143.26;86.67
77106;BME280;66057;54.718;18.426;2023-10-13T07:54:47;47427.66;;;-143.26;86.39
77106;BME280;66057;54.718;18.426;2023-10-13T07:57:15;47474.47;;;-143.26;86.41
77106;BME280;66057;54.718;18.426;2023-10-13T07:59:44;47435.47;;;-143.26;85.13
77106;BME280;66057;54.718;18.426;2023-10-13T08:02:18;47419.84;;;-143.26;84.10
77106;BME280;66057;54.718;18.426;2023-10-13T08:05:08;47447.16;;;-143.26;84.19
77106;BME280;66057;54.718;18.426;2023-10-13T08:07:40;47421.78;;;-143.26;83.72
77106;BME280;66057;54.718;18.426;2023-10-13T08:10:08;47435.47;;;-143.26;83.09
77106;BME280;66057;54.718;18.426;2023-10-13T08:12:36;47419.84;;;-143.26;83.50
77106;BME280;66057;54.718;18.426;2023-10-13T08:15:06;47470.56;;;-143.26;81.86
77106;BME280;66057;54.718;18.426;2023-10-13T08:17:39;47417.91;;;-143.26;82.39
77106;BME280;66057;54.718;18.426;2023-10-13T08:20:09;47449.13;;;-143.26;81.99
77106;BME280;66057;54.718;18.426;2023-10-13T08:22:38;47470.56;;;-143.26;82.18
77106;BME280;66057;54.718;18.426;2023-10-13T08:25:05;47431.56;;;-143.26;81.45
77106;BME280;66057;54.718;18.426;2023-10-13T08:27:50;47419.84;;;-143.26;81.88
77106;BME280;66057;54.718;18.426;2023-10-13T08:30:35;47408.13;;;-143.26;81.25
77106;BME280;66057;54.718;18.426;2023-10-13T08:33:17;47408.13;;;-143.26;81.61
77106;BME280;66057;54.718;18.426;2023-10-13T08:35:43;47415.94;;;-143.26;81.12
77106;BME280;66057;54.718;18.426;2023-10-13T08:38:28;47429.59;;;-143.26;80.35
77106;BME280;66057;54.718;18.426;2023-10-13T08:40:59;47398.38;;;-143.26;79.51
77106;BME280;66057;54.718;18.426;2023-10-13T08:43:46;47408.13;;;-143.26;80.13
77106;BME280;66057;54.718;18.426;2023-10-13T08:46:20;47404.25;;;-143.26;79.49
77106;BME280;66057;54.718;18.426;2023-10-13T08:48:58;47435.47;;;-143.26;79.50
77106;BME280;66057;54.718;18.426;2023-10-13T08:51:41;47412.03;;;-143.26;79.01
77106;BME280;66057;54.718;18.426;2023-10-13T08:54:15;47398.38;;;-143.26;78.27
77106;BME280;66057;54.718;18.426;2023-10-13T08:57:01;47402.28;;;-143.26;78.04
77106;BME280;66057;54.718;18.426;2023-10-13T08:59:46;47414.00;;;-143.26;77.06
77106;BME280;66057;54.718;18.426;2023-10-13T09:02:23;47404.25;;;-143.26;77.29
77106;BME280;66057;54.718;18.426;2023-10-13T09:05:09;47400.34;;;-143.26;77.54
77106;BME280;66057;54.718;18.426;2023-10-13T09:07:58;47431.56;;;-143.26;77.52
77106;BME280;66057;54.718;18.426;2023-10-13T09:10:35;47456.91;;;-143.26;77.02
77106;BME280;66057;54.718;18.426;2023-10-13T09:13:10;47392.53;;;-143.26;76.65
77106;BME280;66057;54.718;18.426;2023-10-13T09:15:47;47429.59;;;-143.26;76.55
77106;BME280;66057;54.718;18.426;2023-10-13T09:18:25;47429.59;;;-143.26;77.34
77106;BME280;66057;54.718;18.426;2023-10-13T09:21:15;47386.69;;;-143.26;77.74
77106;BME280;66057;54.718;18.426;2023-10-13T09:24:13;47419.84;;;-143.26;77.29
77106;BME280;66057;54.718;18.426;2023-10-13T09:27:00;47447.16;;;-143.26;76.87
77106;BME280;66057;54.718;18.426;2023-10-13T09:29:28;47406.19;;;-143.26;77.05
77106;BME280;66057;54.718;18.426;2023-10-13T09:32:03;47408.13;;;-143.26;76.31
77106;BME280;66057;54.718;18.426;2023-10-13T09:34:30;47454.97;;;-143.26;75.92
77106;BME280;66057;54.718;18.426;2023-10-13T09:37:00;47437.41;;;-143.26;76.27
77106;BME280;66057;54.718;18.426;2023-10-13T09:39:28;47410.09;;;-143.26;77.04
77106;BME280;66057;54.718;18.426;2023-10-13T09:42:11;47431.56;;;-143.26;77.18
77106;BME280;66057;54.718;18.426;2023-10-13T09:44:38;47439.34;;;-143.26;76.77
77106;BME280;66057;54.718;18.426;2023-10-13T09:47:10;47451.06;;;-143.26;76.46
77106;BME280;66057;54.718;18.426;2023-10-13T09:49:45;47415.94;;;-143.26;76.70
77106;BME280;66057;54.718;18.426;2023-10-13T09:52:18;47408.13;;;-143.26;77.04
77106;BME280;66057;54.718;18.426;2023-10-13T09:54:56;47415.94;;;-143.26;77.19
77106;BME280;66057;54.718;18.426;2023-10-13T09:57:33;47386.69;;;-143.26;76.62
77106;BME280;66057;54.718;18.426;2023-10-13T10:00:20;47417.91;;;-143.26;76.91
77106;BME280;66057;54.718;18.426;2023-10-13T10:03:22;47421.78;;;-143.26;76.80
77106;BME280;66057;54.718;18.426;2023-10-13T10:06:01;47447.16;;;-143.26;78.01
77106;BME280;66057;54.718;18.426;2023-10-13T10:08:42;47400.34;;;-143.26;77.60
77106;BME280;66057;54.718;18.426;2023-10-13T10:14:16;47400.34;;;-143.26;76.15
77106;BME280;66057;54.718;18.426;2023-10-13T10:19:16;47406.19;;;-143.26;75.71
77106;BME280;66057;54.718;18.426;2023-10-13T10:21:44;47435.47;;;-143.26;75.83
77106;BME280;66057;54.718;18.426;2023-10-13T10:24:20;47441.31;;;-143.26;76.35
77106;BME280;66057;54.718;18.426;2023-10-13T10:26:58;47414.00;;;-143.26;77.00
77106;BME280;66057;54.718;18.426;2023-10-13T10:29:24;47400.34;;;-143.26;76.83
77106;BME280;66057;54.718;18.426;2023-10-13T10:31:52;47408.13;;;-143.26;77.19
77106;BME280;66057;54.718;18.426;2023-10-13T10:34:21;47408.13;;;-143.26;77.10
77106;BME280;66057;54.718;18.426;2023-10-13T10:36:54;47396.44;;;-143.26;76.80
77106;BME280;66057;54.718;18.426;2023-10-13T10:39:21;47398.38;;;-143.26;76.43
77106;BME280;66057;54.718;18.426;2023-10-13T10:42:12;47431.56;;;-143.26;76.39
77106;BME280;66057;54.718;18.426;2023-10-13T10:44:41;47414.00;;;-143.26;76.50
77106;BME280;66057;54.718;18.426;2023-10-13T10:47:15;47371.06;;;-143.26;76.80
77106;BME280;66057;54.718;18.426;2023-10-13T10:50:00;47415.94;;;-143.26;77.22
77106;BME280;66057;54.718;18.426;2023-10-13T10:52:36;47417.91;;;-143.26;76.90
77106;BME280;66057;54.718;18.426;2023-10-13T10:55:06;47419.84;;;-143.26;77.17
77106;BME280;66057;54.718;18.426;2023-10-13T10:57:33;47423.75;;;-143.26;77.70
77106;BME280;66057;54.718;18.426;2023-10-13T11:00:20;47423.75;;;-143.26;77.03
77106;BME280;66057;54.718;18.426;2023-10-13T11:02:56;47431.56;;;-143.26;76.64
77106;BME280;66057;54.718;18.426;2023-10-13T11:05:25;47384.72;;;-143.26;76.57
77106;BME280;66057;54.718;18.426;2023-10-13T11:07:58;47435.47;;;-143.26;76.22
77106;BME280;66057;54.718;18.426;2023-10-13T11:10:24;47398.38;;;-143.26;76.80
77106;BME280;66057;54.718;18.426;2023-10-13T11:12:57;47412.03;;;-143.26;77.06
77106;BME280;66057;54.718;18.426;2023-10-13T11:15:44;47412.03;;;-143.26;76.65
77106;BME280;66057;54.718;18.426;2023-10-13T11:18:10;47439.34;;;-143.26;77.08
77106;BME280;66057;54.718;18.426;2023-10-13T11:20:49;47431.56;;;-143.26;77.81
77106;BME280;66057;54.718;18.426;2023-10-13T11:23:21;47415.94;;;-143.26;77.32
77106;BME280;66057;54.718;18.426;2023-10-13T11:26:00;47419.84;;;-143.26;78.00
77106;BME280;66057;54.718;18.426;2023-10-13T11:28:26;47435.47;;;-143.26;77.62
77106;BME280;66057;54.718;18.426;2023-10-13T11:30:58;47400.34;;;-143.26;78.18
77106;BME280;66057;54.718;18.426;2023-10-13T11:33:42;47400.34;;;-143.26;78.57
77106;BME280;66057;54.718;18.426;2023-10-13T11:36:12;47419.84;;;-143.26;78.48
77106;BME280;66057;54.718;18.426;2023-10-13T11:38:48;47447.16;;;-143.26;78.13
77106;BME280;66057;54.718;18.426;2023-10-13T11:41:15;47421.78;;;-143.26;79.23
77106;BME280;66057;54.718;18.426;2023-10-13T11:43:51;47410.09;;;-143.26;79.36
77106;BME280;66057;54.718;18.426;2023-10-13T11:49:06;47423.75;;;-143.26;79.64
77106;BME280;66057;54.718;18.426;2023-10-13T11:51:42;47419.84;;;-143.26;80.41
77106;BME280;66057;54.718;18.426;2023-10-13T11:56:38;47410.09;;;-143.26;80.30
77106;BME280;66057;54.718;18.426;2023-10-13T11:59:04;47404.25;;;-143.26;80.29
77106;BME280;66057;54.718;18.426;2023-10-13T12:01:32;47431.56;;;-143.26;80.59
77106;BME280;66057;54.718;18.426;2023-10-13T12:04:30;47415.94;;;-143.26;80.98
77106;BME280;66057;54.718;18.426;2023-10-13T12:06:58;47396.44;;;-143.26;80.12
77106;BME280;66057;54.718;18.426;2023-10-13T12:09:56;47410.09;;;-143.26;80.20
77106;BME280;66057;54.718;18.426;2023-10-13T12:12:26;47414.00;;;-143.26;80.84
77106;BME280;66057;54.718;18.426;2023-10-13T12:15:12;47417.91;;;-143.26;80.86
77106;BME280;66057;54.718;18.426;2023-10-13T12:17:51;47392.53;;;-143.26;80.82
77106;BME280;66057;54.718;18.426;2023-10-13T12:20:17;47437.41;;;-143.26;81.56
77106;BME280;66057;54.718;18.426;2023-10-13T12:23:00;47392.53;;;-143.26;81.82
77106;BME280;66057;54.718;18.426;2023-10-13T12:25:45;47404.25;;;-143.26;82.10
77106;BME280;66057;54.718;18.426;2023-10-13T12:28:25;47388.63;;;-143.26;81.69
77106;BME280;66057;54.718;18.426;2023-10-13T12:30:55;47374.97;;;-143.26;82.17
77106;BME280;66057;54.718;18.426;2023-10-13T12:33:24;47419.84;;;-143.26;82.59
77106;BME280;66057;54.718;18.426;2023-10-13T12:35:56;47431.56;;;-143.26;82.68
77106;BME280;66057;54.718;18.426;2023-10-13T12:38:40;47419.84;;;-143.26;83.19
77106;BME280;66057;54.718;18.426;2023-10-13T12:41:15;47435.47;;;-143.26;83.35
77106;BME280;66057;54.718;18.426;2023-10-13T12:44:00;47406.19;;;-143.26;83.98
77106;BME280;66057;54.718;18.426;2023-10-13T12:46:44;47437.41;;;-143.26;84.45
77106;BME280;66057;54.718;18.426;2023-10-13T12:49:29;47361.31;;;-143.26;84.45
77106;BME280;66057;54.718;18.426;2023-10-13T12:52:13;47431.56;;;-143.26;83.72
77106;BME280;66057;54.718;18.426;2023-10-13T12:54:43;47410.09;;;-143.26;84.23
77106;BME280;66057;54.718;18.426;2023-10-13T12:57:29;47423.75;;;-143.26;84.27
77106;BME280;66057;54.718;18.426;2023-10-13T12:59:56;47396.44;;;-143.26;83.88
77106;BME280;66057;54.718;18.426;2023-10-13T13:02:25;47380.81;;;-143.26;84.49
77106;BME280;66057;54.718;18.426;2023-10-13T13:04:53;47404.25;;;-143.26;84.74
77106;BME280;66057;54.718;18.426;2023-10-13T13:07:30;47380.81;;;-143.26;85.21
77106;BME280;66057;54.718;18.426;2023-10-13T13:09:57;47384.72;;;-143.26;85.00
77106;BME280;66057;54.718;18.426;2023-10-13T13:12:26;47408.13;;;-143.26;85.55
77106;BME280;66057;54.718;18.426;2023-10-13T13:14:54;47435.47;;;-143.26;85.49
77106;BME280;66057;54.718;18.426;2023-10-13T13:17:21;47380.81;;;-143.26;86.03
77106;BME280;66057;54.718;18.426;2023-10-13T13:19:47;47404.25;;;-143.26;85.88
77106;BME280;66057;54.718;18.426;2023-10-13T13:22:12;47404.25;;;-143.26;86.40